Shawinigan, Canada
Current Conditions -  °F | °C
As of 4:11 AM on Sunday 26 Oct 2014 (Local Time) from CYRQ Reporting Station
Haze Haze  
Wind Chill: 46°   Ceiling: 5000
Heat Index: 46°   Visibility: 2.2mi
Dew Point: 45°   Wind: 3mph
Humidity: 93%   Direction: 230°SW
Pressure: 29.35"   Gusts: NA
Location:  46.54°N, 72.75°W
Report Text: CYRQ 260811Z AUTO 23003KT 2 1/4SM BR SCT040 OVC050 08/07 A2935 RMK SLP939
Loading
Personal Weather Stations






























Interactive Weather Map
Tropical Storm Tracking
New forecast layout! Learn more

10-Day Weather Forecast

Advertisements
Track Severe Weather on mobile